Time;durP1;ratioP1;P1;durP2;ratioP2;P2;SDS_P1;SDS_P2;PMS_P1;PMS_P2;Temp;Humidity;BMP_temperature;BMP_pressure;BME280_temperature;BME280_humidity;BME280_pressure;Samples;Min_cycle;Max_cycle;Signal;HPM_P1;HPM_P2
2023/02/28 00:00:13;;;;;;;7.70;7.00;;;;;;;;;;4970337;28;20190;-74
2023/02/28 00:02:43;;;;;;;7.22;6.63;;;;;;;;;;4946372;28;20946;-74
2023/02/28 00:05:10;;;;;;;7.20;6.50;;;;;;;;;;4961566;28;20265;-75
2023/02/28 00:07:37;;;;;;;10.48;7.60;;;;;;;;;;4966166;28;20223;-74
2023/02/28 00:10:04;;;;;;;13.05;8.30;;;;;;;;;;4970882;28;20226;-74
2023/02/28 00:12:30;;;;;;;9.98;9.27;;;;;;;;;;4966519;28;20194;-73
2023/02/28 00:14:56;;;;;;;9.07;8.27;;;;;;;;;;4969210;28;20281;-74
2023/02/28 00:17:22;;;;;;;8.68;7.72;;;;;;;;;;4962033;28;20230;-74
2023/02/28 00:19:49;;;;;;;7.82;7.10;;;;;;;;;;4972759;28;20216;-75
2023/02/28 00:22:15;;;;;;;8.90;8.02;;;;;;;;;;4972476;28;20191;-76
2023/02/28 00:24:41;;;;;;;10.52;7.75;;;;;;;;;;4968103;28;20640;-75
2023/02/28 00:27:07;;;;;;;9.45;8.45;;;;;;;;;;4967729;28;20692;-74
2023/02/28 00:29:33;;;;;;;8.70;8.03;;;;;;;;;;4962530;28;20221;-75
2023/02/28 00:31:59;;;;;;;10.27;7.40;;;;;;;;;;4967591;28;20462;-76
2023/02/28 00:34:25;;;;;;;8.63;7.82;;;;;;;;;;4968666;28;20543;-75
2023/02/28 00:36:51;;;;;;;8.13;7.53;;;;;;;;;;4972566;28;20688;-75
2023/02/28 00:39:17;;;;;;;8.57;7.37;;;;;;;;;;4970771;28;20221;-75
2023/02/28 00:41:43;;;;;;;8.70;7.80;;;;;;;;;;4969779;28;20535;-75
2023/02/28 00:44:09;;;;;;;9.40;8.30;;;;;;;;;;4955390;28;21057;-75
2023/02/28 00:46:35;;;;;;;10.32;7.45;;;;;;;;;;4969203;28;20850;-76
2023/02/28 00:49:01;;;;;;;9.40;6.80;;;;;;;;;;4950605;28;20233;-74
2023/02/28 00:51:27;;;;;;;22.80;18.93;;;;;;;;;;4966833;28;20441;-76
2023/02/28 00:53:53;;;;;;;8.80;7.93;;;;;;;;;;4965991;28;20958;-75
2023/02/28 00:56:19;;;;;;;9.57;7.70;;;;;;;;;;4964368;28;20200;-76
2023/02/28 00:58:45;;;;;;;9.93;6.40;;;;;;;;;;4966240;28;20201;-76
2023/02/28 01:01:11;;;;;;;8.90;7.33;;;;;;;;;;4973080;28;20432;-76
2023/02/28 01:03:38;;;;;;;7.00;6.40;;;;;;;;;;4969485;28;20445;-75
2023/02/28 01:06:04;;;;;;;6.68;6.18;;;;;;;;;;4971150;28;20983;-75
2023/02/28 01:08:30;;;;;;;6.32;6.03;;;;;;;;;;4969811;28;20681;-76
2023/02/28 01:10:56;;;;;;;7.53;7.03;;;;;;;;;;4969096;28;20185;-75
2023/02/28 01:13:25;;;;;;;6.40;5.85;;;;;;;;;;4969465;28;20197;-76
2023/02/28 01:15:51;;;;;;;8.68;7.00;;;;;;;;;;4970831;28;20835;-76
2023/02/28 01:18:18;;;;;;;6.40;5.87;;;;;;;;;;4970718;28;20841;-76
2023/02/28 01:20:45;;;;;;;9.02;6.85;;;;;;;;;;4972061;28;20494;-76
2023/02/28 01:23:11;;;;;;;7.13;6.63;;;;;;;;;;4975683;28;20252;-76
2023/02/28 01:25:40;;;;;;;7.00;6.50;;;;;;;;;;4961012;28;20213;-75
2023/02/28 01:28:06;;;;;;;9.48;7.30;;;;;;;;;;4971632;28;20492;-77
2023/02/28 01:30:32;;;;;;;12.10;10.15;;;;;;;;;;4973245;28;20193;-76
2023/02/28 01:32:59;;;;;;;11.80;10.73;;;;;;;;;;4971888;28;20278;-76
2023/02/28 01:35:25;;;;;;;15.38;12.35;;;;;;;;;;4973590;28;20823;-76
2023/02/28 01:37:51;;;;;;;6.73;5.90;;;;;;;;;;4971667;28;20204;-75
2023/02/28 01:40:17;;;;;;;7.28;6.57;;;;;;;;;;4971689;28;20437;-76
2023/02/28 01:42:43;;;;;;;6.50;5.80;;;;;;;;;;4967119;28;20202;-76
2023/02/28 01:45:18;;;;;;;6.05;5.25;;;;;;;;;;4972764;28;20467;-75
2023/02/28 01:47:44;;;;;;;6.95;6.40;;;;;;;;;;4967672;28;20288;-74
2023/02/28 01:50:12;;;;;;;6.10;5.70;;;;;;;;;;4970736;28;20184;-75
2023/02/28 01:52:38;;;;;;;5.60;5.10;;;;;;;;;;4968700;28;21002;-75
2023/02/28 01:55:06;;;;;;;6.10;5.70;;;;;;;;;;4971435;28;20185;-75
2023/02/28 01:57:37;;;;;;;4.95;4.65;;;;;;;;;;4970388;28;20444;-77
2023/02/28 02:00:13;;;;;;;6.10;5.65;;;;;;;;;;4971655;28;20552;-76
2023/02/28 02:02:39;;;;;;;6.63;6.23;;;;;;;;;;4950711;28;20665;-75
2023/02/28 02:05:07;;;;;;;7.05;6.35;;;;;;;;;;4972307;28;20476;-75
2023/02/28 02:07:35;;;;;;;7.32;6.65;;;;;;;;;;4968886;28;20225;-76
2023/02/28 02:10:02;;;;;;;6.25;5.72;;;;;;;;;;4969631;28;20186;-75
2023/02/28 02:12:38;;;;;;;6.45;5.97;;;;;;;;;;4964929;28;20685;-75
2023/02/28 02:15:08;;;;;;;6.07;5.57;;;;;;;;;;4952723;28;20649;-75
2023/02/28 02:17:42;;;;;;;6.23;5.67;;;;;;;;;;4954088;28;20733;-76
2023/02/28 02:20:26;;;;;;;5.82;5.47;;;;;;;;;;4972449;28;20453;-76
2023/02/28 02:23:11;;;;;;;6.50;5.35;;;;;;;;;;4967527;28;20193;-75
2023/02/28 02:25:43;;;;;;;6.43;5.85;;;;;;;;;;4971319;28;20957;-75
2023/02/28 02:28:12;;;;;;;6.00;5.70;;;;;;;;;;4970448;28;20729;-75
2023/02/28 02:30:58;;;;;;;7.63;6.10;;;;;;;;;;4971027;28;20192;-75
2023/02/28 02:33:27;;;;;;;5.85;5.55;;;;;;;;;;4969161;28;20197;-74
2023/02/28 02:35:57;;;;;;;7.18;6.68;;;;;;;;;;4972660;28;20189;-75
2023/02/28 02:38:33;;;;;;;6.82;6.20;;;;;;;;;;4968231;28;20272;-74
2023/02/28 02:41:17;;;;;;;10.25;6.55;;;;;;;;;;4955590;28;20189;-74
2023/02/28 02:44:05;;;;;;;4.95;4.65;;;;;;;;;;4967219;28;20205;-74
2023/02/28 02:46:35;;;;;;;8.65;5.93;;;;;;;;;;4968064;28;20228;-76
2023/02/28 02:49:03;;;;;;;6.97;5.43;;;;;;;;;;4970620;28;20188;-75
2023/02/28 02:51:31;;;;;;;6.50;6.00;;;;;;;;;;4969542;28;20259;-75
2023/02/28 02:53:57;;;;;;;7.40;5.82;;;;;;;;;;4968587;28;20576;-75
2023/02/28 02:56:25;;;;;;;8.13;7.33;;;;;;;;;;4951133;28;20196;-75
2023/02/28 02:58:54;;;;;;;10.15;7.35;;;;;;;;;;4966022;28;20515;-74
2023/02/28 03:01:27;;;;;;;6.93;6.30;;;;;;;;;;4971381;28;20208;-74
2023/02/28 03:03:55;;;;;;;10.20;6.47;;;;;;;;;;4967006;28;20192;-75
2023/02/28 03:06:21;;;;;;;5.50;5.15;;;;;;;;;;4971707;28;20315;-74
2023/02/28 03:08:47;;;;;;;7.82;5.80;;;;;;;;;;4967401;28;20233;-74
2023/02/28 03:11:14;;;;;;;8.20;7.23;;;;;;;;;;4963157;28;20288;-74
2023/02/28 03:13:49;;;;;;;6.40;5.85;;;;;;;;;;4968192;28;20450;-75
2023/02/28 03:16:15;;;;;;;8.00;7.20;;;;;;;;;;4969111;28;20207;-74
2023/02/28 03:18:41;;;;;;;7.50;6.50;;;;;;;;;;4969791;28;20292;-75
2023/02/28 03:21:17;;;;;;;8.07;7.27;;;;;;;;;;4971961;28;20580;-74
2023/02/28 03:23:45;;;;;;;11.05;6.50;;;;;;;;;;4968953;28;20419;-74
2023/02/28 03:26:20;;;;;;;6.85;6.25;;;;;;;;;;4949655;28;20216;-74
2023/02/28 03:29:05;;;;;;;5.05;4.65;;;;;;;;;;4967142;28;20231;-73
2023/02/28 03:31:34;;;;;;;5.13;4.88;;;;;;;;;;4965798;28;20239;-73
2023/02/28 03:34:11;;;;;;;5.63;5.07;;;;;;;;;;4949248;28;20189;-74
2023/02/28 03:36:43;;;;;;;6.00;5.50;;;;;;;;;;4966398;28;20263;-75
2023/02/28 03:39:11;;;;;;;5.47;3.80;;;;;;;;;;4967570;28;20203;-73
2023/02/28 03:41:42;;;;;;;6.65;5.35;;;;;;;;;;4968379;28;20239;-74
2023/02/28 03:44:15;;;;;;;6.28;4.82;;;;;;;;;;4966655;28;20188;-74
2023/02/28 03:46:44;;;;;;;5.38;5.05;;;;;;;;;;4938884;28;20208;-73
2023/02/28 03:49:17;;;;;;;6.30;5.35;;;;;;;;;;4969499;28;20648;-74
2023/02/28 03:51:46;;;;;;;4.82;4.60;;;;;;;;;;4968616;28;21238;-74
2023/02/28 03:54:24;;;;;;;6.47;5.90;;;;;;;;;;4970784;28;20204;-75
2023/02/28 03:56:50;;;;;;;4.68;4.43;;;;;;;;;;4972733;28;20642;-75
2023/02/28 03:59:34;;;;;;;5.63;5.20;;;;;;;;;;4973758;28;20198;-73
2023/02/28 04:02:00;;;;;;;6.97;5.43;;;;;;;;;;4972775;28;20441;-75
2023/02/28 04:04:26;;;;;;;7.72;5.10;;;;;;;;;;4971868;28;20197;-75
2023/02/28 04:06:53;;;;;;;5.07;4.68;;;;;;;;;;4954247;28;20315;-74
2023/02/28 04:09:19;;;;;;;4.90;4.55;;;;;;;;;;4952581;28;20190;-73
2023/02/28 04:11:56;;;;;;;5.60;5.20;;;;;;;;;;4947716;28;20580;-73
2023/02/28 04:14:22;;;;;;;4.95;4.65;;;;;;;;;;4952104;28;20214;-75
2023/02/28 04:16:48;;;;;;;7.13;5.18;;;;;;;;;;4951699;28;20194;-75
2023/02/28 04:19:15;;;;;;;10.18;6.30;;;;;;;;;;4951546;28;20254;-74
2023/02/28 04:21:42;;;;;;;6.65;5.60;;;;;;;;;;4950456;28;20253;-76
2023/02/28 04:24:13;;;;;;;5.03;4.65;;;;;;;;;;4950642;28;20195;-75
2023/02/28 04:26:40;;;;;;;5.00;4.78;;;;;;;;;;4950992;28;20257;-74
2023/02/28 04:29:07;;;;;;;7.03;5.70;;;;;;;;;;4950408;28;20242;-74
2023/02/28 04:31:33;;;;;;;11.88;5.68;;;;;;;;;;4951311;28;20229;-75
2023/02/28 04:33:59;;;;;;;6.22;5.72;;;;;;;;;;4953159;28;20241;-75
2023/02/28 04:36:25;;;;;;;6.17;5.57;;;;;;;;;;4951407;28;20230;-75
2023/02/28 04:38:51;;;;;;;5.25;4.75;;;;;;;;;;4951264;28;20437;-74
2023/02/28 04:41:17;;;;;;;4.93;4.63;;;;;;;;;;4952412;28;20190;-73
2023/02/28 04:43:43;;;;;;;5.55;5.25;;;;;;;;;;4951482;28;20674;-73
2023/02/28 04:46:12;;;;;;;4.93;4.60;;;;;;;;;;4951036;28;20202;-73
2023/02/28 04:48:39;;;;;;;5.07;4.60;;;;;;;;;;4933795;28;20468;-73
2023/02/28 04:51:10;;;;;;;5.57;5.07;;;;;;;;;;4953826;28;21275;-75
2023/02/28 04:53:36;;;;;;;5.50;5.10;;;;;;;;;;4943752;28;20954;-74
2023/02/28 04:56:03;;;;;;;7.35;6.68;;;;;;;;;;4949027;28;20285;-74
2023/02/28 04:58:29;;;;;;;5.88;5.32;;;;;;;;;;4950505;28;20196;-75
2023/02/28 05:01:01;;;;;;;5.43;4.80;;;;;;;;;;4950308;28;20273;-74
2023/02/28 05:03:27;;;;;;;5.22;4.82;;;;;;;;;;4949432;28;21215;-73
2023/02/28 05:05:53;;;;;;;6.10;5.40;;;;;;;;;;4964052;28;20222;-76
2023/02/28 05:08:19;;;;;;;6.13;5.20;;;;;;;;;;4965435;28;20441;-73
2023/02/28 05:10:45;;;;;;;5.93;5.40;;;;;;;;;;4971530;28;20440;-74
2023/02/28 05:13:14;;;;;;;6.57;4.77;;;;;;;;;;4964268;28;20603;-74
2023/02/28 05:15:40;;;;;;;5.05;4.63;;;;;;;;;;4965330;28;20475;-74
2023/02/28 05:18:09;;;;;;;6.28;4.97;;;;;;;;;;4971386;28;20777;-75
2023/02/28 05:20:35;;;;;;;5.07;4.67;;;;;;;;;;4967026;28;20182;-78
2023/02/28 05:23:02;;;;;;;6.00;5.50;;;;;;;;;;4970962;28;20433;-81
2023/02/28 05:25:28;;;;;;;4.80;4.28;;;;;;;;;;4964940;28;20284;-73
2023/02/28 05:27:54;;;;;;;5.93;4.20;;;;;;;;;;4970440;28;20631;-73
2023/02/28 05:30:20;;;;;;;8.27;5.60;;;;;;;;;;4960387;28;20199;-74
2023/02/28 05:32:50;;;;;;;7.25;5.15;;;;;;;;;;4957633;28;20300;-74
2023/02/28 05:35:16;;;;;;;5.13;4.82;;;;;;;;;;4956959;28;20787;-73
2023/02/28 05:37:42;;;;;;;7.37;5.30;;;;;;;;;;4940928;28;20433;-74
2023/02/28 05:40:10;;;;;;;6.10;5.50;;;;;;;;;;4962398;28;20543;-74
2023/02/28 05:42:36;;;;;;;8.85;6.38;;;;;;;;;;4962057;28;20457;-75
2023/02/28 05:45:02;;;;;;;9.07;6.27;;;;;;;;;;4966682;28;20190;-75
2023/02/28 05:47:28;;;;;;;7.40;6.70;;;;;;;;;;4963724;28;21097;-75
2023/02/28 05:49:54;;;;;;;7.80;6.27;;;;;;;;;;4967607;28;20246;-75
2023/02/28 05:52:20;;;;;;;5.83;5.40;;;;;;;;;;4964461;28;20445;-75
2023/02/28 05:54:46;;;;;;;8.63;7.73;;;;;;;;;;4969733;28;20530;-75
2023/02/28 05:57:12;;;;;;;11.02;7.28;;;;;;;;;;4959508;28;20442;-75
2023/02/28 05:59:39;;;;;;;8.07;7.07;;;;;;;;;;4957421;28;20197;-75
2023/02/28 06:02:06;;;;;;;11.95;7.50;;;;;;;;;;4972535;28;20428;-75
2023/02/28 06:04:32;;;;;;;8.35;5.85;;;;;;;;;;4962910;28;20558;-76
2023/02/28 06:06:58;;;;;;;10.50;5.30;;;;;;;;;;4960638;28;20319;-76
2023/02/28 06:09:24;;;;;;;13.25;5.85;;;;;;;;;;4958265;28;20819;-77
2023/02/28 06:11:50;;;;;;;4.70;4.30;;;;;;;;;;4964789;28;20565;-76
2023/02/28 06:14:18;;;;;;;10.38;4.90;;;;;;;;;;4963646;28;20225;-76
2023/02/28 06:16:44;;;;;;;8.23;5.05;;;;;;;;;;4964845;28;20210;-76
2023/02/28 06:19:10;;;;;;;5.85;5.45;;;;;;;;;;4946372;28;20195;-76
2023/02/28 06:21:36;;;;;;;9.82;7.30;;;;;;;;;;4967408;28;20192;-77
2023/02/28 06:24:03;;;;;;;7.80;6.43;;;;;;;;;;4963781;28;20356;-75
2023/02/28 06:26:29;;;;;;;11.45;10.35;;;;;;;;;;4963860;28;20754;-76
2023/02/28 06:28:55;;;;;;;6.63;6.03;;;;;;;;;;4962677;28;20197;-76
2023/02/28 06:31:21;;;;;;;8.35;7.72;;;;;;;;;;4965124;28;20425;-76
2023/02/28 06:33:48;;;;;;;6.05;5.70;;;;;;;;;;4962427;28;20651;-77
2023/02/28 06:36:14;;;;;;;5.78;5.28;;;;;;;;;;4948577;28;20204;-75
2023/02/28 06:38:41;;;;;;;7.43;6.65;;;;;;;;;;4963140;28;20198;-77
2023/02/28 06:41:08;;;;;;;5.60;5.30;;;;;;;;;;4965858;28;20321;-78
2023/02/28 06:43:35;;;;;;;7.93;6.32;;;;;;;;;;4963497;28;20883;-77
2023/02/28 06:46:03;;;;;;;12.35;8.35;;;;;;;;;;4964470;28;20183;-76
2023/02/28 06:48:28;;;;;;;5.50;5.10;;;;;;;;;;4960269;28;20561;-75
2023/02/28 06:51:04;;;;;;;7.17;6.10;;;;;;;;;;4967932;28;20210;-76
2023/02/28 06:53:30;;;;;;;9.38;7.00;;;;;;;;;;4961923;28;20850;-75
2023/02/28 06:55:56;;;;;;;8.15;6.82;;;;;;;;;;4967453;28;20240;-76
2023/02/28 06:58:22;;;;;;;11.90;6.97;;;;;;;;;;4960320;28;20200;-75
2023/02/28 07:00:51;;;;;;;5.03;4.70;;;;;;;;;;4967917;28;20550;-74
2023/02/28 07:03:18;;;;;;;10.48;8.35;;;;;;;;;;4960030;28;20584;-75
2023/02/28 07:05:44;;;;;;;5.80;5.45;;;;;;;;;;4968236;28;20207;-75
2023/02/28 07:08:10;;;;;;;9.20;6.93;;;;;;;;;;4943674;28;20197;-74
2023/02/28 07:10:38;;;;;;;17.37;8.27;;;;;;;;;;4964605;28;20235;-75
2023/02/28 07:13:04;;;;;;;7.90;7.30;;;;;;;;;;4964122;28;20788;-76
2023/02/28 07:15:30;;;;;;;7.90;6.85;;;;;;;;;;4962577;28;20324;-76
2023/02/28 07:17:56;;;;;;;6.25;5.75;;;;;;;;;;4963553;28;20203;-76
2023/02/28 07:20:23;;;;;;;6.00;5.50;;;;;;;;;;4961392;28;20198;-77
2023/02/28 07:22:55;;;;;;;5.47;4.83;;;;;;;;;;4965148;28;20877;-79
2023/02/28 07:25:21;;;;;;;6.90;5.17;;;;;;;;;;4945670;28;20526;-77
2023/02/28 07:27:47;;;;;;;10.70;5.40;;;;;;;;;;4968288;28;20508;-78
2023/02/28 07:30:13;;;;;;;6.77;4.70;;;;;;;;;;4955198;28;20964;-78
2023/02/28 07:32:39;;;;;;;4.87;4.47;;;;;;;;;;4957826;28;20536;-76
2023/02/28 07:35:05;;;;;;;6.80;5.40;;;;;;;;;;4971892;28;21031;-75
2023/02/28 07:37:36;;;;;;;4.87;4.47;;;;;;;;;;4959903;28;20504;-77
2023/02/28 07:40:04;;;;;;;5.43;4.40;;;;;;;;;;4961443;28;20437;-76
2023/02/28 07:42:30;;;;;;;6.33;5.73;;;;;;;;;;4965505;28;20458;-77
2023/02/28 07:44:56;;;;;;;6.07;5.20;;;;;;;;;;4967904;28;20467;-77
2023/02/28 07:47:22;;;;;;;5.93;5.43;;;;;;;;;;4965851;28;20429;-76
2023/02/28 07:49:48;;;;;;;4.80;4.50;;;;;;;;;;4962894;28;20456;-77
2023/02/28 07:52:14;;;;;;;4.07;3.90;;;;;;;;;;4967445;28;20441;-79
2023/02/28 07:54:39;;;;;;;4.90;4.50;;;;;;;;;;4969445;28;20971;-75
2023/02/28 07:57:06;;;;;;;4.70;4.50;;;;;;;;;;4979076;28;20428;-77
2023/02/28 07:59:32;;;;;;;4.23;4.03;;;;;;;;;;4969133;28;20434;-77
2023/02/28 08:01:58;;;;;;;5.03;4.83;;;;;;;;;;4963375;28;20543;-77
2023/02/28 08:04:25;;;;;;;4.80;4.60;;;;;;;;;;4953086;28;20453;-76
2023/02/28 08:06:52;;;;;;;4.70;4.50;;;;;;;;;;4968742;28;20460;-77
2023/02/28 08:09:18;;;;;;;3.90;3.80;;;;;;;;;;4963704;28;20536;-77
2023/02/28 08:11:44;;;;;;;5.00;4.60;;;;;;;;;;4938753;28;20427;-78
2023/02/28 08:14:10;;;;;;;4.40;4.10;;;;;;;;;;4973209;28;20450;-77
2023/02/28 08:16:37;;;;;;;5.43;4.67;;;;;;;;;;4962939;28;20462;-76
2023/02/28 08:19:03;;;;;;;3.70;3.50;;;;;;;;;;4968138;28;20448;-77
2023/02/28 08:21:29;;;;;;;3.50;3.40;;;;;;;;;;4956062;28;20445;-77
2023/02/28 08:23:56;;;;;;;4.40;4.20;;;;;;;;;;4964973;28;20450;-79
2023/02/28 08:26:22;;;;;;;3.83;3.53;;;;;;;;;;4973721;28;20472;-77
2023/02/28 08:28:48;;;;;;;3.87;3.80;;;;;;;;;;4960250;28;20841;-75
2023/02/28 08:31:15;;;;;;;3.80;3.60;;;;;;;;;;4960203;28;20445;-76
2023/02/28 08:33:42;;;;;;;9.30;5.67;;;;;;;;;;4963107;28;21008;-77
2023/02/28 08:36:09;;;;;;;3.60;3.60;;;;;;;;;;4961885;28;20520;-75
2023/02/28 08:38:36;;;;;;;4.80;4.47;;;;;;;;;;4955067;28;21129;-79
2023/02/28 08:41:05;;;;;;;4.73;4.33;;;;;;;;;;4966493;28;20437;-77
2023/02/28 08:43:31;;;;;;;4.30;4.13;;;;;;;;;;4964691;28;20788;-76
2023/02/28 08:45:57;;;;;;;4.47;4.17;;;;;;;;;;4944032;28;21079;-77
2023/02/28 08:48:24;;;;;;;4.07;3.77;;;;;;;;;;4941040;28;20521;-77
2023/02/28 08:51:00;;;;;;;4.53;4.10;;;;;;;;;;4966953;28;20433;-78
2023/02/28 08:53:27;;;;;;;4.30;4.10;;;;;;;;;;4955318;28;20444;-77
2023/02/28 08:55:56;;;;;;;4.63;4.37;;;;;;;;;;4962937;28;20593;-76
2023/02/28 08:58:23;;;;;;;4.17;3.97;;;;;;;;;;4936143;28;20834;-76
2023/02/28 09:00:49;;;;;;;4.63;4.40;;;;;;;;;;4954979;28;21263;-76
2023/02/28 09:03:16;;;;;;;4.00;3.90;;;;;;;;;;4958669;28;20465;-76
2023/02/28 09:05:42;;;;;;;3.70;3.70;;;;;;;;;;4954751;28;20520;-76
2023/02/28 09:08:08;;;;;;;3.80;3.70;;;;;;;;;;4951238;28;20450;-76
2023/02/28 09:10:35;;;;;;;3.90;3.60;;;;;;;;;;4955274;28;21043;-76
2023/02/28 09:13:01;;;;;;;3.47;3.47;;;;;;;;;;4956205;28;20825;-77
2023/02/28 09:15:27;;;;;;;3.93;3.50;;;;;;;;;;4950322;28;20464;-77
2023/02/28 09:17:53;;;;;;;4.20;3.97;;;;;;;;;;4957646;28;20461;-76
2023/02/28 09:20:19;;;;;;;3.60;3.47;;;;;;;;;;4949725;28;20588;-76
2023/02/28 09:22:45;;;;;;;3.37;3.33;;;;;;;;;;4947374;28;20449;-77
2023/02/28 09:25:11;;;;;;;3.67;3.37;;;;;;;;;;4962607;28;20492;-78
2023/02/28 09:27:37;;;;;;;3.73;3.50;;;;;;;;;;4968597;28;20890;-78
2023/02/28 09:30:03;;;;;;;6.13;3.70;;;;;;;;;;4955602;28;20482;-78
2023/02/28 09:32:29;;;;;;;3.70;3.60;;;;;;;;;;4969279;28;20429;-77
2023/02/28 09:34:55;;;;;;;3.60;3.43;;;;;;;;;;4970559;28;20473;-77
2023/02/28 09:37:21;;;;;;;3.30;3.30;;;;;;;;;;4971118;28;20492;-77
2023/02/28 09:39:47;;;;;;;3.30;3.17;;;;;;;;;;4931907;28;20466;-78
2023/02/28 09:42:19;;;;;;;3.40;3.30;;;;;;;;;;4956135;28;20699;-77
2023/02/28 09:44:46;;;;;;;2.70;2.53;;;;;;;;;;4971267;28;20546;-78
2023/02/28 09:47:26;;;;;;;3.37;3.37;;;;;;;;;;4965829;28;20976;-77
2023/02/28 09:49:52;;;;;;;3.40;3.17;;;;;;;;;;4962786;28;20515;-78
2023/02/28 09:52:20;;;;;;;2.60;2.50;;;;;;;;;;4967485;28;20433;-79
2023/02/28 09:54:47;;;;;;;2.93;2.83;;;;;;;;;;4971175;28;20465;-77
2023/02/28 09:57:45;;;;;;;2.80;2.70;;;;;;;;;;4966574;28;20945;-78
2023/02/28 10:00:23;;;;;;;3.33;3.13;;;;;;;;;;4920743;28;20617;-79
2023/02/28 10:02:54;;;;;;;3.27;2.97;;;;;;;;;;4975396;28;20433;-78
2023/02/28 10:05:25;;;;;;;2.70;2.70;;;;;;;;;;4961524;28;21168;-77
2023/02/28 10:08:11;;;;;;;2.97;2.87;;;;;;;;;;4961656;28;20897;-78
2023/02/28 10:10:43;;;;;;;4.10;2.83;;;;;;;;;;4965511;28;20495;-80
2023/02/28 10:13:23;;;;;;;2.40;2.40;;;;;;;;;;4940690;28;20425;-77
2023/02/28 10:15:51;;;;;;;3.70;2.60;;;;;;;;;;4959644;28;20480;-78
2023/02/28 10:18:21;;;;;;;2.70;2.50;;;;;;;;;;4958023;28;20499;-78
2023/02/28 10:20:48;;;;;;;2.20;2.20;;;;;;;;;;4957790;28;20437;-79
2023/02/28 10:23:20;;;;;;;2.47;2.47;;;;;;;;;;4950323;28;20901;-79
2023/02/28 10:25:50;;;;;;;2.83;2.73;;;;;;;;;;4941366;28;20837;-78
2023/02/28 10:28:20;;;;;;;3.10;3.00;;;;;;;;;;4957983;28;20957;-78
2023/02/28 10:30:47;;;;;;;2.87;2.77;;;;;;;;;;4954579;28;20452;-74
2023/02/28 10:33:24;;;;;;;2.40;2.40;;;;;;;;;;4956133;28;20505;-78
2023/02/28 10:35:51;;;;;;;2.70;2.60;;;;;;;;;;4964892;28;20464;-79
2023/02/28 10:38:23;;;;;;;2.70;2.50;;;;;;;;;;4972086;28;21065;-79
2023/02/28 10:40:50;;;;;;;2.30;2.30;;;;;;;;;;4967551;28;20507;-77
2023/02/28 10:43:16;;;;;;;2.50;2.47;;;;;;;;;;4975424;28;20429;-75
2023/02/28 10:45:54;;;;;;;2.53;2.53;;;;;;;;;;4958002;28;20457;-78
2023/02/28 10:48:20;;;;;;;2.00;2.00;;;;;;;;;;4947070;28;20440;-77
2023/02/28 10:50:53;;;;;;;3.17;3.17;;;;;;;;;;4953679;28;20457;-78
2023/02/28 10:53:25;;;;;;;3.60;2.30;;;;;;;;;;4958770;28;20508;-78
2023/02/28 10:55:58;;;;;;;2.80;2.70;;;;;;;;;;4961369;28;20472;-78
2023/02/28 10:58:25;;;;;;;2.20;2.10;;;;;;;;;;4957277;28;20430;-77
2023/02/28 11:00:52;;;;;;;2.50;2.50;;;;;;;;;;4964935;28;20807;-77
2023/02/28 11:03:25;;;;;;;2.27;2.17;;;;;;;;;;4953486;28;20442;-78
2023/02/28 11:05:51;;;;;;;2.20;2.20;;;;;;;;;;4957714;28;20465;-78
2023/02/28 11:08:18;;;;;;;1.80;1.80;;;;;;;;;;4953405;28;20464;-79
2023/02/28 11:10:48;;;;;;;2.30;2.23;;;;;;;;;;4969213;28;20444;-78
2023/02/28 11:13:18;;;;;;;3.03;2.67;;;;;;;;;;4957575;28;20426;-78
2023/02/28 11:15:50;;;;;;;3.00;2.70;;;;;;;;;;4967759;28;20880;-77
2023/02/28 11:18:22;;;;;;;4.03;3.73;;;;;;;;;;4950696;28;20475;-78
2023/02/28 11:20:49;;;;;;;3.00;2.90;;;;;;;;;;4956855;28;20449;-79
2023/02/28 11:23:16;;;;;;;3.30;3.10;;;;;;;;;;4968967;28;20441;-79
2023/02/28 11:25:47;;;;;;;2.23;2.13;;;;;;;;;;4956903;28;20450;-77
2023/02/28 11:28:28;;;;;;;2.33;2.20;;;;;;;;;;4956190;28;20504;-78
2023/02/28 11:31:13;;;;;;;2.20;2.10;;;;;;;;;;4957553;28;20492;-78
2023/02/28 11:33:44;;;;;;;2.00;2.00;;;;;;;;;;4942563;28;20469;-79
2023/02/28 11:36:27;;;;;;;2.10;2.10;;;;;;;;;;4950492;28;20484;-77
2023/02/28 11:39:01;;;;;;;2.50;2.50;;;;;;;;;;4961923;28;20434;-78
2023/02/28 11:41:48;;;;;;;2.20;2.20;;;;;;;;;;4947242;28;20425;-78
2023/02/28 11:44:29;;;;;;;2.17;2.17;;;;;;;;;;4946730;28;20945;-78
2023/02/28 11:46:59;;;;;;;2.83;2.80;;;;;;;;;;4966162;28;20472;-78
2023/02/28 11:49:55;;;;;;;3.73;3.53;;;;;;;;;;4958836;28;20449;-78
2023/02/28 11:52:27;;;;;;;2.23;2.13;;;;;;;;;;4893828;28;20776;-79
2023/02/28 11:54:56;;;;;;;2.27;2.27;;;;;;;;;;4971281;28;20467;-79
2023/02/28 11:57:22;;;;;;;6.73;2.47;;;;;;;;;;4965623;28;20484;-79
2023/02/28 11:59:48;;;;;;;3.60;2.20;;;;;;;;;;4959736;28;20441;-79
2023/02/28 12:02:17;;;;;;;2.90;2.70;;;;;;;;;;4948048;28;20500;-77
2023/02/28 12:04:56;;;;;;;2.50;2.40;;;;;;;;;;4967915;28;20591;-78
2023/02/28 12:07:41;;;;;;;2.50;2.40;;;;;;;;;;4962839;28;20774;-78
2023/02/28 12:10:18;;;;;;;2.63;2.63;;;;;;;;;;4962383;28;20518;-78
2023/02/28 12:12:52;;;;;;;2.57;2.50;;;;;;;;;;4959880;28;20811;-78
2023/02/28 12:15:28;;;;;;;2.23;2.13;;;;;;;;;;4958757;28;20476;-79
2023/02/28 12:18:00;;;;;;;2.77;2.67;;;;;;;;;;4969825;28;20433;-79
2023/02/28 12:20:44;;;;;;;2.23;2.23;;;;;;;;;;4965879;28;20445;-77
2023/02/28 12:23:25;;;;;;;3.23;2.93;;;;;;;;;;4958692;28;20456;-79
2023/02/28 12:25:54;;;;;;;2.00;2.00;;;;;;;;;;4955382;28;20451;-76
2023/02/28 12:28:26;;;;;;;4.83;3.00;;;;;;;;;;4972422;28;20440;-77
2023/02/28 12:31:04;;;;;;;2.77;2.77;;;;;;;;;;4957241;28;20449;-79
2023/02/28 12:33:37;;;;;;;4.13;2.40;;;;;;;;;;4976440;28;20459;-77
2023/02/28 12:36:10;;;;;;;2.80;2.70;;;;;;;;;;4973124;28;20717;-78
2023/02/28 12:38:43;;;;;;;2.50;2.50;;;;;;;;;;4980065;28;20885;-76
2023/02/28 12:41:18;;;;;;;2.33;2.23;;;;;;;;;;4960534;28;21465;-78
2023/02/28 12:43:49;;;;;;;2.87;2.77;;;;;;;;;;4960825;28;20596;-78
2023/02/28 12:46:22;;;;;;;3.23;2.20;;;;;;;;;;4969825;28;21004;-79
2023/02/28 12:48:57;;;;;;;2.60;2.60;;;;;;;;;;4968247;28;20433;-77
2023/02/28 12:51:24;;;;;;;3.43;3.23;;;;;;;;;;4963608;28;20456;-77
2023/02/28 12:53:55;;;;;;;2.10;2.00;;;;;;;;;;4938053;28;20552;-78
2023/02/28 12:56:30;;;;;;;3.17;2.97;;;;;;;;;;4966189;28;20483;-81
2023/02/28 12:59:15;;;;;;;2.83;2.67;;;;;;;;;;4939503;28;20776;-77
2023/02/28 13:01:47;;;;;;;5.07;4.67;;;;;;;;;;4967279;28;20432;-79
2023/02/28 13:04:28;;;;;;;3.00;3.00;;;;;;;;;;4978732;28;20449;-79
2023/02/28 13:06:55;;;;;;;3.03;3.00;;;;;;;;;;4964437;28;20467;-80
2023/02/28 13:09:21;;;;;;;2.87;2.77;;;;;;;;;;4965552;28;20879;-77
2023/02/28 13:11:49;;;;;;;5.03;3.20;;;;;;;;;;4967764;28;20438;-78
2023/02/28 13:14:35;;;;;;;3.43;3.30;;;;;;;;;;4953884;28;20464;-78
2023/02/28 13:17:01;;;;;;;3.47;3.37;;;;;;;;;;4946220;28;20461;-79
2023/02/28 13:19:33;;;;;;;2.50;2.50;;;;;;;;;;4958970;28;20445;-77
2023/02/28 13:21:59;;;;;;;3.00;2.90;;;;;;;;;;4964918;28;20517;-77
2023/02/28 13:24:34;;;;;;;3.03;3.00;;;;;;;;;;4962332;28;20457;-80
2023/02/28 13:27:00;;;;;;;2.63;2.60;;;;;;;;;;4965578;28;20879;-77
2023/02/28 13:29:33;;;;;;;3.13;3.13;;;;;;;;;;4964632;28;20452;-78
2023/02/28 13:32:08;;;;;;;3.03;3.00;;;;;;;;;;4943307;28;20406;-78
2023/02/28 13:34:35;;;;;;;3.10;2.70;;;;;;;;;;4963430;28;20975;-78
2023/02/28 13:37:20;;;;;;;3.90;3.30;;;;;;;;;;4969891;28;20893;-77
2023/02/28 13:39:48;;;;;;;2.90;2.90;;;;;;;;;;4961206;28;20872;-80
2023/02/28 13:42:37;;;;;;;3.07;3.00;;;;;;;;;;4967370;28;21177;-78
2023/02/28 13:45:03;;;;;;;2.93;2.80;;;;;;;;;;4961833;28;20433;-78
2023/02/28 13:47:30;;;;;;;3.07;2.87;;;;;;;;;;4965887;28;20418;-79
2023/02/28 13:50:15;;;;;;;3.13;3.13;;;;;;;;;;4945684;28;20483;-77
2023/02/28 13:53:04;;;;;;;3.20;3.20;;;;;;;;;;4966544;28;20747;-77
2023/02/28 13:55:36;;;;;;;3.10;3.10;;;;;;;;;;4917801;28;20468;-78
2023/02/28 13:58:05;;;;;;;3.43;3.40;;;;;;;;;;4973106;28;20421;-78
2023/02/28 14:00:31;;;;;;;3.50;3.50;;;;;;;;;;4959962;28;20960;-78
2023/02/28 14:03:00;;;;;;;3.60;3.60;;;;;;;;;;4939979;28;20704;-78
2023/02/28 14:05:30;;;;;;;3.30;3.10;;;;;;;;;;4972533;28;20484;-76
2023/02/28 14:08:00;;;;;;;3.00;2.90;;;;;;;;;;4965452;28;20504;-77
2023/02/28 14:10:29;;;;;;;2.90;2.80;;;;;;;;;;4957129;28;20441;-79
2023/02/28 14:12:55;;;;;;;4.17;3.80;;;;;;;;;;4967310;28;20435;-77
2023/02/28 14:15:44;;;;;;;3.77;3.67;;;;;;;;;;4960680;28;20464;-79
2023/02/28 14:18:25;;;;;;;2.80;2.70;;;;;;;;;;4949155;28;20939;-78
2023/02/28 14:21:12;;;;;;;3.70;3.60;;;;;;;;;;4961565;28;20437;-80
2023/02/28 14:23:55;;;;;;;3.50;3.20;;;;;;;;;;4959544;28;20456;-77
2023/02/28 14:26:27;;;;;;;6.17;5.77;;;;;;;;;;4934915;28;20454;-78
2023/02/28 14:29:14;;;;;;;3.30;3.20;;;;;;;;;;4967575;28;20483;-78
2023/02/28 14:32:10;;;;;;;3.17;3.13;;;;;;;;;;4958599;28;20444;-78
2023/02/28 14:34:41;;;;;;;3.20;3.10;;;;;;;;;;4905922;28;20563;-79
2023/02/28 14:37:11;;;;;;;3.40;3.30;;;;;;;;;;4945883;28;20417;-78
2023/02/28 14:39:41;;;;;;;2.80;2.70;;;;;;;;;;4961605;28;20473;-79
2023/02/28 14:42:25;;;;;;;4.07;3.77;;;;;;;;;;4945460;28;20504;-78
2023/02/28 14:44:56;;;;;;;3.73;3.63;;;;;;;;;;4960021;28;20434;-77
2023/02/28 14:47:29;;;;;;;3.50;3.30;;;;;;;;;;4964165;28;20516;-76
2023/02/28 14:49:55;;;;;;;3.63;3.53;;;;;;;;;;4939822;28;20802;-80
2023/02/28 14:52:29;;;;;;;4.73;4.43;;;;;;;;;;4962939;28;20419;-79
2023/02/28 14:55:00;;;;;;;3.63;3.63;;;;;;;;;;4954889;28;20509;-77